sensor_id;sensor_type;location;lat;lon;timestamp;P1;durP1;ratioP1;P2;durP2;ratioP2
75169;SDS011;63749;49.186;9.222;2024-02-21T00:01:37;16.30;;;5.20;;
75169;SDS011;63749;49.186;9.222;2024-02-21T00:04:02;16.77;;;5.18;;
75169;SDS011;63749;49.186;9.222;2024-02-21T00:06:27;16.77;;;5.53;;
75169;SDS011;63749;49.186;9.222;2024-02-21T00:08:53;16.23;;;4.87;;
75169;SDS011;63749;49.186;9.222;2024-02-21T00:11:18;12.67;;;4.60;;
75169;SDS011;63749;49.186;9.222;2024-02-21T00:13:43;18.80;;;5.17;;
75169;SDS011;63749;49.186;9.222;2024-02-21T00:16:09;14.67;;;5.17;;
75169;SDS011;63749;49.186;9.222;2024-02-21T00:18:35;15.80;;;5.60;;
75169;SDS011;63749;49.186;9.222;2024-02-21T00:21:01;18.53;;;5.90;;
75169;SDS011;63749;49.186;9.222;2024-02-21T00:23:26;13.00;;;5.63;;
75169;SDS011;63749;49.186;9.222;2024-02-21T00:25:53;14.38;;;5.20;;
75169;SDS011;63749;49.186;9.222;2024-02-21T00:28:18;15.20;;;5.30;;
75169;SDS011;63749;49.186;9.222;2024-02-21T00:30:44;14.80;;;4.63;;
75169;SDS011;63749;49.186;9.222;2024-02-21T00:33:09;15.30;;;4.70;;
75169;SDS011;63749;49.186;9.222;2024-02-21T00:35:34;14.53;;;4.97;;
75169;SDS011;63749;49.186;9.222;2024-02-21T00:38:00;15.23;;;4.35;;
75169;SDS011;63749;49.186;9.222;2024-02-21T00:40:25;12.53;;;4.50;;
75169;SDS011;63749;49.186;9.222;2024-02-21T00:42:51;13.43;;;4.70;;
75169;SDS011;63749;49.186;9.222;2024-02-21T00:45:16;13.77;;;4.37;;
75169;SDS011;63749;49.186;9.222;2024-02-21T00:47:41;15.00;;;5.20;;
75169;SDS011;63749;49.186;9.222;2024-02-21T00:50:07;17.93;;;4.90;;
75169;SDS011;63749;49.186;9.222;2024-02-21T00:52:33;12.57;;;4.60;;
75169;SDS011;63749;49.186;9.222;2024-02-21T00:54:58;15.20;;;5.40;;
75169;SDS011;63749;49.186;9.222;2024-02-21T00:57:23;14.00;;;4.70;;
75169;SDS011;63749;49.186;9.222;2024-02-21T00:59:49;13.50;;;4.63;;
75169;SDS011;63749;49.186;9.222;2024-02-21T01:02:14;13.63;;;4.60;;
75169;SDS011;63749;49.186;9.222;2024-02-21T01:04:40;14.53;;;4.77;;
75169;SDS011;63749;49.186;9.222;2024-02-21T01:07:05;13.93;;;4.80;;
75169;SDS011;63749;49.186;9.222;2024-02-21T01:09:30;10.50;;;4.60;;
75169;SDS011;63749;49.186;9.222;2024-02-21T01:11:56;12.37;;;4.70;;
75169;SDS011;63749;49.186;9.222;2024-02-21T01:14:21;15.17;;;5.03;;
75169;SDS011;63749;49.186;9.222;2024-02-21T01:16:46;13.37;;;5.13;;
75169;SDS011;63749;49.186;9.222;2024-02-21T01:19:12;11.87;;;4.87;;
75169;SDS011;63749;49.186;9.222;2024-02-21T01:21:37;13.70;;;5.27;;
75169;SDS011;63749;49.186;9.222;2024-02-21T01:24:02;14.17;;;4.60;;
75169;SDS011;63749;49.186;9.222;2024-02-21T01:26:28;16.40;;;4.53;;
75169;SDS011;63749;49.186;9.222;2024-02-21T01:28:53;15.60;;;4.77;;
75169;SDS011;63749;49.186;9.222;2024-02-21T01:31:19;11.20;;;4.00;;
75169;SDS011;63749;49.186;9.222;2024-02-21T01:33:45;13.13;;;4.22;;
75169;SDS011;63749;49.186;9.222;2024-02-21T01:36:10;13.57;;;4.30;;
75169;SDS011;63749;49.186;9.222;2024-02-21T01:38:35;11.87;;;3.90;;
75169;SDS011;63749;49.186;9.222;2024-02-21T01:41:01;12.10;;;4.17;;
75169;SDS011;63749;49.186;9.222;2024-02-21T01:43:26;12.03;;;3.90;;
75169;SDS011;63749;49.186;9.222;2024-02-21T01:45:52;14.33;;;5.20;;
75169;SDS011;63749;49.186;9.222;2024-02-21T01:48:19;10.68;;;4.28;;
75169;SDS011;63749;49.186;9.222;2024-02-21T01:50:46;11.30;;;4.25;;
75169;SDS011;63749;49.186;9.222;2024-02-21T01:53:15;15.33;;;4.60;;
75169;SDS011;63749;49.186;9.222;2024-02-21T01:55:46;15.38;;;4.55;;
75169;SDS011;63749;49.186;9.222;2024-02-21T01:58:15;9.35;;;4.10;;
75169;SDS011;63749;49.186;9.222;2024-02-21T02:00:42;11.90;;;3.73;;
75169;SDS011;63749;49.186;9.222;2024-02-21T02:03:11;10.13;;;3.97;;
75169;SDS011;63749;49.186;9.222;2024-02-21T02:05:48;8.00;;;4.05;;
75169;SDS011;63749;49.186;9.222;2024-02-21T02:08:18;13.73;;;4.30;;
75169;SDS011;63749;49.186;9.222;2024-02-21T02:10:44;11.82;;;4.07;;
75169;SDS011;63749;49.186;9.222;2024-02-21T02:13:10;13.30;;;3.93;;
75169;SDS011;63749;49.186;9.222;2024-02-21T02:15:40;16.45;;;4.15;;
75169;SDS011;63749;49.186;9.222;2024-02-21T02:18:06;12.52;;;4.00;;
75169;SDS011;63749;49.186;9.222;2024-02-21T02:20:32;14.23;;;4.50;;
75169;SDS011;63749;49.186;9.222;2024-02-21T02:23:01;12.48;;;3.90;;
75169;SDS011;63749;49.186;9.222;2024-02-21T02:25:43;12.27;;;3.60;;
75169;SDS011;63749;49.186;9.222;2024-02-21T02:28:08;10.77;;;3.65;;
75169;SDS011;63749;49.186;9.222;2024-02-21T02:30:37;14.00;;;3.53;;
75169;SDS011;63749;49.186;9.222;2024-02-21T02:33:05;12.32;;;3.92;;
75169;SDS011;63749;49.186;9.222;2024-02-21T02:35:31;10.90;;;3.67;;
75169;SDS011;63749;49.186;9.222;2024-02-21T02:37:57;11.50;;;3.95;;
75169;SDS011;63749;49.186;9.222;2024-02-21T02:40:23;11.23;;;3.80;;
75169;SDS011;63749;49.186;9.222;2024-02-21T02:42:48;15.00;;;4.00;;
75169;SDS011;63749;49.186;9.222;2024-02-21T02:45:14;14.90;;;4.40;;
75169;SDS011;63749;49.186;9.222;2024-02-21T02:47:40;11.98;;;4.97;;
75169;SDS011;63749;49.186;9.222;2024-02-21T02:50:06;14.20;;;4.33;;
75169;SDS011;63749;49.186;9.222;2024-02-21T02:52:32;11.98;;;3.95;;
75169;SDS011;63749;49.186;9.222;2024-02-21T02:54:58;13.13;;;4.40;;
75169;SDS011;63749;49.186;9.222;2024-02-21T02:57:23;13.00;;;4.35;;
75169;SDS011;63749;49.186;9.222;2024-02-21T02:59:49;14.63;;;4.63;;
75169;SDS011;63749;49.186;9.222;2024-02-21T03:02:15;15.70;;;5.40;;
75169;SDS011;63749;49.186;9.222;2024-02-21T03:04:41;14.07;;;5.40;;
75169;SDS011;63749;49.186;9.222;2024-02-21T03:07:06;13.23;;;5.40;;
75169;SDS011;63749;49.186;9.222;2024-02-21T03:09:33;12.83;;;5.13;;
75169;SDS011;63749;49.186;9.222;2024-02-21T03:11:58;13.70;;;5.70;;
75169;SDS011;63749;49.186;9.222;2024-02-21T03:14:30;13.95;;;4.80;;
75169;SDS011;63749;49.186;9.222;2024-02-21T03:16:57;11.65;;;4.20;;
75169;SDS011;63749;49.186;9.222;2024-02-21T03:19:24;13.13;;;4.10;;
75169;SDS011;63749;49.186;9.222;2024-02-21T03:21:49;12.27;;;4.00;;
75169;SDS011;63749;49.186;9.222;2024-02-21T03:24:18;16.90;;;3.97;;
75169;SDS011;63749;49.186;9.222;2024-02-21T03:26:44;15.57;;;4.45;;
75169;SDS011;63749;49.186;9.222;2024-02-21T03:29:12;12.03;;;3.70;;
75169;SDS011;63749;49.186;9.222;2024-02-21T03:31:38;15.98;;;3.95;;
75169;SDS011;63749;49.186;9.222;2024-02-21T03:34:04;15.33;;;5.30;;
75169;SDS011;63749;49.186;9.222;2024-02-21T03:36:29;14.27;;;5.30;;
75169;SDS011;63749;49.186;9.222;2024-02-21T03:38:55;14.77;;;5.50;;
75169;SDS011;63749;49.186;9.222;2024-02-21T03:41:20;13.57;;;4.97;;
75169;SDS011;63749;49.186;9.222;2024-02-21T03:43:46;14.63;;;5.20;;
75169;SDS011;63749;49.186;9.222;2024-02-21T03:46:11;18.30;;;6.50;;
75169;SDS011;63749;49.186;9.222;2024-02-21T03:48:37;17.57;;;6.50;;
75169;SDS011;63749;49.186;9.222;2024-02-21T03:51:08;13.05;;;4.85;;
75169;SDS011;63749;49.186;9.222;2024-02-21T03:53:33;11.40;;;4.67;;
75169;SDS011;63749;49.186;9.222;2024-02-21T03:56:02;16.20;;;4.97;;
75169;SDS011;63749;49.186;9.222;2024-02-21T03:58:29;10.25;;;3.80;;
75169;SDS011;63749;49.186;9.222;2024-02-21T04:00:55;14.32;;;4.25;;
75169;SDS011;63749;49.186;9.222;2024-02-21T04:03:20;11.67;;;4.07;;
75169;SDS011;63749;49.186;9.222;2024-02-21T04:05:45;10.57;;;4.20;;
75169;SDS011;63749;49.186;9.222;2024-02-21T04:08:11;10.13;;;3.70;;
75169;SDS011;63749;49.186;9.222;2024-02-21T04:10:37;13.03;;;3.87;;
75169;SDS011;63749;49.186;9.222;2024-02-21T04:13:02;12.67;;;4.37;;
75169;SDS011;63749;49.186;9.222;2024-02-21T04:15:29;11.45;;;3.90;;
75169;SDS011;63749;49.186;9.222;2024-02-21T04:17:54;12.27;;;4.27;;
75169;SDS011;63749;49.186;9.222;2024-02-21T04:20:19;12.13;;;4.28;;
75169;SDS011;63749;49.186;9.222;2024-02-21T04:22:45;12.23;;;5.23;;
75169;SDS011;63749;49.186;9.222;2024-02-21T04:25:10;16.07;;;5.50;;
75169;SDS011;63749;49.186;9.222;2024-02-21T04:27:39;14.77;;;5.70;;
75169;SDS011;63749;49.186;9.222;2024-02-21T04:30:05;12.25;;;5.30;;
75169;SDS011;63749;49.186;9.222;2024-02-21T04:32:31;16.27;;;5.43;;
75169;SDS011;63749;49.186;9.222;2024-02-21T04:34:57;14.52;;;5.20;;
75169;SDS011;63749;49.186;9.222;2024-02-21T04:37:22;15.67;;;5.40;;
75169;SDS011;63749;49.186;9.222;2024-02-21T04:39:50;13.50;;;4.67;;
75169;SDS011;63749;49.186;9.222;2024-02-21T04:42:16;11.15;;;5.03;;
75169;SDS011;63749;49.186;9.222;2024-02-21T04:44:41;14.10;;;4.97;;
75169;SDS011;63749;49.186;9.222;2024-02-21T04:47:06;11.40;;;4.23;;
75169;SDS011;63749;49.186;9.222;2024-02-21T04:49:32;10.93;;;4.20;;
75169;SDS011;63749;49.186;9.222;2024-02-21T04:51:58;10.23;;;4.37;;
75169;SDS011;63749;49.186;9.222;2024-02-21T04:54:23;11.23;;;4.00;;
75169;SDS011;63749;49.186;9.222;2024-02-21T04:56:49;14.18;;;4.35;;
75169;SDS011;63749;49.186;9.222;2024-02-21T04:59:15;12.37;;;4.30;;
75169;SDS011;63749;49.186;9.222;2024-02-21T05:01:40;13.65;;;4.22;;
75169;SDS011;63749;49.186;9.222;2024-02-21T05:04:05;10.93;;;4.43;;
75169;SDS011;63749;49.186;9.222;2024-02-21T05:06:31;15.73;;;4.90;;
75169;SDS011;63749;49.186;9.222;2024-02-21T05:08:56;12.40;;;5.57;;
75169;SDS011;63749;49.186;9.222;2024-02-21T05:11:23;15.45;;;6.60;;
75169;SDS011;63749;49.186;9.222;2024-02-21T05:13:48;16.63;;;6.85;;
75169;SDS011;63749;49.186;9.222;2024-02-21T05:16:14;16.53;;;7.90;;
75169;SDS011;63749;49.186;9.222;2024-02-21T05:18:40;21.00;;;8.97;;
75169;SDS011;63749;49.186;9.222;2024-02-21T05:21:05;19.52;;;8.43;;
75169;SDS011;63749;49.186;9.222;2024-02-21T05:23:31;22.73;;;10.10;;
75169;SDS011;63749;49.186;9.222;2024-02-21T05:25:56;24.30;;;11.43;;
75169;SDS011;63749;49.186;9.222;2024-02-21T05:28:21;24.17;;;12.07;;
75169;SDS011;63749;49.186;9.222;2024-02-21T05:30:47;26.90;;;13.03;;
75169;SDS011;63749;49.186;9.222;2024-02-21T05:33:12;19.47;;;11.27;;
75169;SDS011;63749;49.186;9.222;2024-02-21T05:35:37;22.83;;;10.35;;
75169;SDS011;63749;49.186;9.222;2024-02-21T05:38:04;22.67;;;10.00;;
75169;SDS011;63749;49.186;9.222;2024-02-21T05:40:36;15.80;;;8.70;;
75169;SDS011;63749;49.186;9.222;2024-02-21T05:43:04;19.77;;;7.50;;
75169;SDS011;63749;49.186;9.222;2024-02-21T05:45:30;17.85;;;7.20;;
75169;SDS011;63749;49.186;9.222;2024-02-21T05:47:57;17.02;;;8.18;;
75169;SDS011;63749;49.186;9.222;2024-02-21T05:50:22;23.40;;;8.17;;
75169;SDS011;63749;49.186;9.222;2024-02-21T05:52:48;21.92;;;9.30;;
75169;SDS011;63749;49.186;9.222;2024-02-21T05:55:16;18.83;;;9.07;;
75169;SDS011;63749;49.186;9.222;2024-02-21T05:57:41;19.48;;;8.52;;
75169;SDS011;63749;49.186;9.222;2024-02-21T06:00:07;20.70;;;7.43;;
75169;SDS011;63749;49.186;9.222;2024-02-21T06:02:33;16.17;;;7.33;;
75169;SDS011;63749;49.186;9.222;2024-02-21T06:04:58;19.20;;;6.32;;
75169;SDS011;63749;49.186;9.222;2024-02-21T06:07:23;17.70;;;5.47;;
75169;SDS011;63749;49.186;9.222;2024-02-21T06:09:49;16.30;;;6.23;;
75169;SDS011;63749;49.186;9.222;2024-02-21T06:12:14;15.80;;;6.03;;
75169;SDS011;63749;49.186;9.222;2024-02-21T06:14:39;16.67;;;6.50;;
75169;SDS011;63749;49.186;9.222;2024-02-21T06:17:05;19.07;;;6.87;;
75169;SDS011;63749;49.186;9.222;2024-02-21T06:19:30;20.00;;;8.80;;
75169;SDS011;63749;49.186;9.222;2024-02-21T06:21:55;22.70;;;9.43;;
75169;SDS011;63749;49.186;9.222;2024-02-21T06:24:21;25.80;;;11.70;;
75169;SDS011;63749;49.186;9.222;2024-02-21T06:26:46;26.67;;;14.10;;
75169;SDS011;63749;49.186;9.222;2024-02-21T06:29:12;31.13;;;15.97;;
75169;SDS011;63749;49.186;9.222;2024-02-21T06:31:40;36.58;;;17.33;;
75169;SDS011;63749;49.186;9.222;2024-02-21T06:34:05;34.25;;;17.48;;
75169;SDS011;63749;49.186;9.222;2024-02-21T06:36:31;32.43;;;16.87;;
75169;SDS011;63749;49.186;9.222;2024-02-21T06:38:56;28.53;;;16.83;;
75169;SDS011;63749;49.186;9.222;2024-02-21T06:41:21;34.60;;;18.15;;
75169;SDS011;63749;49.186;9.222;2024-02-21T06:43:47;32.60;;;17.43;;
75169;SDS011;63749;49.186;9.222;2024-02-21T06:46:22;28.20;;;14.23;;
75169;SDS011;63749;49.186;9.222;2024-02-21T06:48:52;18.83;;;10.43;;
75169;SDS011;63749;49.186;9.222;2024-02-21T06:51:18;20.77;;;10.32;;
75169;SDS011;63749;49.186;9.222;2024-02-21T06:53:43;23.67;;;11.70;;
75169;SDS011;63749;49.186;9.222;2024-02-21T06:56:09;24.13;;;12.20;;
75169;SDS011;63749;49.186;9.222;2024-02-21T06:58:35;24.23;;;10.30;;
75169;SDS011;63749;49.186;9.222;2024-02-21T07:01:01;19.33;;;9.15;;
75169;SDS011;63749;49.186;9.222;2024-02-21T07:03:26;22.93;;;8.20;;
75169;SDS011;63749;49.186;9.222;2024-02-21T07:05:52;14.33;;;6.80;;
75169;SDS011;63749;49.186;9.222;2024-02-21T07:08:17;15.53;;;5.60;;
75169;SDS011;63749;49.186;9.222;2024-02-21T07:10:43;14.30;;;4.90;;
75169;SDS011;63749;49.186;9.222;2024-02-21T07:13:08;12.53;;;5.07;;
75169;SDS011;63749;49.186;9.222;2024-02-21T07:15:33;13.77;;;5.50;;
75169;SDS011;63749;49.186;9.222;2024-02-21T07:17:59;13.27;;;5.20;;
75169;SDS011;63749;49.186;9.222;2024-02-21T07:20:24;14.70;;;5.27;;
75169;SDS011;63749;49.186;9.222;2024-02-21T07:22:50;14.10;;;5.63;;
75169;SDS011;63749;49.186;9.222;2024-02-21T07:25:15;12.93;;;5.40;;
75169;SDS011;63749;49.186;9.222;2024-02-21T07:27:41;18.35;;;5.50;;
75169;SDS011;63749;49.186;9.222;2024-02-21T07:30:07;18.60;;;5.70;;
75169;SDS011;63749;49.186;9.222;2024-02-21T07:32:32;16.35;;;5.47;;
75169;SDS011;63749;49.186;9.222;2024-02-21T07:34:58;22.27;;;6.63;;
75169;SDS011;63749;49.186;9.222;2024-02-21T07:37:23;19.20;;;6.10;;
75169;SDS011;63749;49.186;9.222;2024-02-21T07:39:48;17.40;;;6.40;;
75169;SDS011;63749;49.186;9.222;2024-02-21T07:42:14;15.80;;;5.70;;
75169;SDS011;63749;49.186;9.222;2024-02-21T07:44:40;14.68;;;5.53;;
75169;SDS011;63749;49.186;9.222;2024-02-21T07:47:06;13.57;;;5.00;;
75169;SDS011;63749;49.186;9.222;2024-02-21T07:49:32;15.55;;;5.25;;
75169;SDS011;63749;49.186;9.222;2024-02-21T07:51:57;15.25;;;4.90;;
75169;SDS011;63749;49.186;9.222;2024-02-21T07:54:25;13.43;;;4.47;;
75169;SDS011;63749;49.186;9.222;2024-02-21T07:56:51;13.10;;;4.73;;
75169;SDS011;63749;49.186;9.222;2024-02-21T07:59:16;11.70;;;4.87;;
75169;SDS011;63749;49.186;9.222;2024-02-21T08:01:41;11.47;;;4.57;;
75169;SDS011;63749;49.186;9.222;2024-02-21T08:04:07;12.48;;;4.93;;
75169;SDS011;63749;49.186;9.222;2024-02-21T08:06:33;11.57;;;4.57;;
75169;SDS011;63749;49.186;9.222;2024-02-21T08:08:58;18.00;;;4.60;;
75169;SDS011;63749;49.186;9.222;2024-02-21T08:11:25;12.93;;;4.10;;
75169;SDS011;63749;49.186;9.222;2024-02-21T08:13:50;12.23;;;3.83;;
75169;SDS011;63749;49.186;9.222;2024-02-21T08:16:16;9.70;;;3.57;;
75169;SDS011;63749;49.186;9.222;2024-02-21T08:18:41;10.00;;;3.53;;
75169;SDS011;63749;49.186;9.222;2024-02-21T08:21:09;11.33;;;3.43;;
75169;SDS011;63749;49.186;9.222;2024-02-21T08:23:34;10.20;;;3.47;;
75169;SDS011;63749;49.186;9.222;2024-02-21T08:26:02;9.10;;;3.40;;
75169;SDS011;63749;49.186;9.222;2024-02-21T08:28:28;14.05;;;4.43;;
75169;SDS011;63749;49.186;9.222;2024-02-21T08:30:54;7.47;;;3.50;;
75169;SDS011;63749;49.186;9.222;2024-02-21T08:33:19;14.67;;;4.33;;
75169;SDS011;63749;49.186;9.222;2024-02-21T08:35:49;11.00;;;3.90;;
75169;SDS011;63749;49.186;9.222;2024-02-21T08:38:15;10.80;;;3.80;;
75169;SDS011;63749;49.186;9.222;2024-02-21T08:40:40;9.03;;;3.50;;
75169;SDS011;63749;49.186;9.222;2024-02-21T08:43:05;11.43;;;3.47;;
75169;SDS011;63749;49.186;9.222;2024-02-21T08:45:31;10.83;;;3.47;;
75169;SDS011;63749;49.186;9.222;2024-02-21T08:47:56;10.13;;;3.83;;
75169;SDS011;63749;49.186;9.222;2024-02-21T08:50:21;12.77;;;3.60;;
75169;SDS011;63749;49.186;9.222;2024-02-21T08:52:47;10.90;;;3.50;;
75169;SDS011;63749;49.186;9.222;2024-02-21T08:55:12;9.07;;;3.13;;
75169;SDS011;63749;49.186;9.222;2024-02-21T08:57:37;13.63;;;3.70;;
75169;SDS011;63749;49.186;9.222;2024-02-21T09:00:04;9.47;;;3.70;;
75169;SDS011;63749;49.186;9.222;2024-02-21T09:02:34;11.55;;;3.60;;
75169;SDS011;63749;49.186;9.222;2024-02-21T09:05:01;12.93;;;3.78;;
75169;SDS011;63749;49.186;9.222;2024-02-21T09:07:27;12.67;;;3.40;;
75169;SDS011;63749;49.186;9.222;2024-02-21T09:09:52;9.40;;;3.42;;
75169;SDS011;63749;49.186;9.222;2024-02-21T09:12:17;11.43;;;3.90;;
75169;SDS011;63749;49.186;9.222;2024-02-21T09:14:43;11.43;;;4.30;;
75169;SDS011;63749;49.186;9.222;2024-02-21T09:17:08;15.80;;;5.10;;
75169;SDS011;63749;49.186;9.222;2024-02-21T09:19:35;10.00;;;4.67;;
75169;SDS011;63749;49.186;9.222;2024-02-21T09:22:00;21.98;;;4.60;;
75169;SDS011;63749;49.186;9.222;2024-02-21T09:24:25;15.03;;;4.00;;
75169;SDS011;63749;49.186;9.222;2024-02-21T09:26:51;10.73;;;3.93;;
75169;SDS011;63749;49.186;9.222;2024-02-21T09:29:16;13.37;;;3.90;;
75169;SDS011;63749;49.186;9.222;2024-02-21T09:31:41;14.37;;;4.13;;
75169;SDS011;63749;49.186;9.222;2024-02-21T09:34:07;12.03;;;3.60;;
75169;SDS011;63749;49.186;9.222;2024-02-21T09:36:32;11.70;;;3.80;;
75169;SDS011;63749;49.186;9.222;2024-02-21T09:38:57;10.50;;;3.53;;
75169;SDS011;63749;49.186;9.222;2024-02-21T09:41:26;10.40;;;3.30;;
75169;SDS011;63749;49.186;9.222;2024-02-21T09:43:52;14.23;;;3.30;;
75169;SDS011;63749;49.186;9.222;2024-02-21T09:46:19;12.82;;;3.50;;
75169;SDS011;63749;49.186;9.222;2024-02-21T09:51:17;8.98;;;3.13;;
75169;SDS011;63749;49.186;9.222;2024-02-21T09:53:44;10.63;;;3.23;;
75169;SDS011;63749;49.186;9.222;2024-02-21T09:56:10;9.63;;;3.00;;
75169;SDS011;63749;49.186;9.222;2024-02-21T09:58:37;11.35;;;3.20;;
75169;SDS011;63749;49.186;9.222;2024-02-21T10:01:03;8.73;;;3.00;;
75169;SDS011;63749;49.186;9.222;2024-02-21T10:03:31;8.25;;;3.05;;
75169;SDS011;63749;49.186;9.222;2024-02-21T10:05:58;11.90;;;3.57;;
75169;SDS011;63749;49.186;9.222;2024-02-21T10:08:25;9.57;;;2.90;;
75169;SDS011;63749;49.186;9.222;2024-02-21T10:10:51;8.93;;;2.92;;
75169;SDS011;63749;49.186;9.222;2024-02-21T10:13:27;9.20;;;2.92;;
75169;SDS011;63749;49.186;9.222;2024-02-21T10:16:06;12.13;;;3.25;;
75169;SDS011;63749;49.186;9.222;2024-02-21T10:18:35;11.87;;;3.00;;
75169;SDS011;63749;49.186;9.222;2024-02-21T10:21:04;6.40;;;2.67;;
75169;SDS011;63749;49.186;9.222;2024-02-21T10:23:41;7.40;;;2.70;;
75169;SDS011;63749;49.186;9.222;2024-02-21T10:26:16;8.88;;;2.90;;
75169;SDS011;63749;49.186;9.222;2024-02-21T10:28:42;9.10;;;2.80;;
75169;SDS011;63749;49.186;9.222;2024-02-21T10:31:10;8.13;;;3.00;;
75169;SDS011;63749;49.186;9.222;2024-02-21T10:33:36;9.98;;;3.33;;
75169;SDS011;63749;49.186;9.222;2024-02-21T10:36:06;7.85;;;2.85;;
75169;SDS011;63749;49.186;9.222;2024-02-21T10:38:38;7.88;;;2.90;;
75169;SDS011;63749;49.186;9.222;2024-02-21T10:41:04;8.38;;;2.60;;
75169;SDS011;63749;49.186;9.222;2024-02-21T10:43:33;12.23;;;2.90;;
75169;SDS011;63749;49.186;9.222;2024-02-21T10:46:04;8.98;;;2.60;;
75169;SDS011;63749;49.186;9.222;2024-02-21T10:48:33;9.20;;;2.22;;
75169;SDS011;63749;49.186;9.222;2024-02-21T10:51:16;6.95;;;2.60;;
75169;SDS011;63749;49.186;9.222;2024-02-21T10:53:45;11.73;;;2.80;;
75169;SDS011;63749;49.186;9.222;2024-02-21T10:58:52;8.23;;;2.53;;
75169;SDS011;63749;49.186;9.222;2024-02-21T11:01:18;9.65;;;2.53;;
75169;SDS011;63749;49.186;9.222;2024-02-21T11:03:45;9.35;;;2.80;;
75169;SDS011;63749;49.186;9.222;2024-02-21T11:06:11;7.93;;;2.30;;
75169;SDS011;63749;49.186;9.222;2024-02-21T11:08:38;6.57;;;2.47;;
75169;SDS011;63749;49.186;9.222;2024-02-21T11:11:04;8.50;;;2.43;;
75169;SDS011;63749;49.186;9.222;2024-02-21T11:13:40;10.43;;;3.00;;
75169;SDS011;63749;49.186;9.222;2024-02-21T11:16:09;11.55;;;2.53;;
75169;SDS011;63749;49.186;9.222;2024-02-21T11:18:36;12.00;;;2.08;;
75169;SDS011;63749;49.186;9.222;2024-02-21T11:21:02;9.32;;;2.28;;
75169;SDS011;63749;49.186;9.222;2024-02-21T11:23:29;8.80;;;2.50;;
75169;SDS011;63749;49.186;9.222;2024-02-21T11:26:07;8.27;;;2.30;;
75169;SDS011;63749;49.186;9.222;2024-02-21T11:28:33;5.95;;;1.95;;
75169;SDS011;63749;49.186;9.222;2024-02-21T11:31:06;7.45;;;2.28;;
75169;SDS011;63749;49.186;9.222;2024-02-21T11:33:39;8.27;;;2.10;;
75169;SDS011;63749;49.186;9.222;2024-02-21T11:36:10;5.75;;;2.00;;
75169;SDS011;63749;49.186;9.222;2024-02-21T11:38:35;6.55;;;2.08;;
75169;SDS011;63749;49.186;9.222;2024-02-21T11:41:01;12.10;;;2.30;;
75169;SDS011;63749;49.186;9.222;2024-02-21T11:43:27;7.32;;;2.08;;
75169;SDS011;63749;49.186;9.222;2024-02-21T11:46:02;6.13;;;1.95;;
75169;SDS011;63749;49.186;9.222;2024-02-21T11:48:28;9.10;;;2.43;;
75169;SDS011;63749;49.186;9.222;2024-02-21T11:50:54;6.43;;;1.98;;
75169;SDS011;63749;49.186;9.222;2024-02-21T11:53:22;9.00;;;2.40;;
75169;SDS011;63749;49.186;9.222;2024-02-21T11:55:49;6.10;;;1.90;;
75169;SDS011;63749;49.186;9.222;2024-02-21T11:58:15;8.73;;;2.35;;
75169;SDS011;63749;49.186;9.222;2024-02-21T12:00:41;6.03;;;2.00;;
75169;SDS011;63749;49.186;9.222;2024-02-21T12:03:06;7.93;;;2.17;;
75169;SDS011;63749;49.186;9.222;2024-02-21T12:05:32;7.20;;;2.40;;
75169;SDS011;63749;49.186;9.222;2024-02-21T12:07:58;3.70;;;1.87;;
75169;SDS011;63749;49.186;9.222;2024-02-21T12:10:23;8.88;;;2.60;;
75169;SDS011;63749;49.186;9.222;2024-02-21T12:12:51;7.13;;;2.00;;
75169;SDS011;63749;49.186;9.222;2024-02-21T12:15:18;4.35;;;1.90;;
75169;SDS011;63749;49.186;9.222;2024-02-21T12:17:43;7.60;;;2.00;;
75169;SDS011;63749;49.186;9.222;2024-02-21T12:20:09;6.17;;;2.00;;
75169;SDS011;63749;49.186;9.222;2024-02-21T12:22:36;7.72;;;2.08;;
75169;SDS011;63749;49.186;9.222;2024-02-21T12:25:03;6.78;;;2.10;;
75169;SDS011;63749;49.186;9.222;2024-02-21T12:27:29;8.20;;;2.25;;
75169;SDS011;63749;49.186;9.222;2024-02-21T12:29:55;7.23;;;2.33;;
75169;SDS011;63749;49.186;9.222;2024-02-21T12:32:20;6.82;;;2.15;;
75169;SDS011;63749;49.186;9.222;2024-02-21T12:34:46;7.13;;;2.00;;
75169;SDS011;63749;49.186;9.222;2024-02-21T12:37:11;6.23;;;2.20;;
75169;SDS011;63749;49.186;9.222;2024-02-21T12:39:40;8.20;;;2.33;;
75169;SDS011;63749;49.186;9.222;2024-02-21T12:42:06;8.85;;;2.40;;
75169;SDS011;63749;49.186;9.222;2024-02-21T12:44:32;8.93;;;2.73;;
75169;SDS011;63749;49.186;9.222;2024-02-21T12:46:59;8.65;;;2.17;;
75169;SDS011;63749;49.186;9.222;2024-02-21T12:49:24;6.40;;;2.30;;
75169;SDS011;63749;49.186;9.222;2024-02-21T12:51:49;6.43;;;2.10;;
75169;SDS011;63749;49.186;9.222;2024-02-21T12:54:15;7.67;;;2.33;;
75169;SDS011;63749;49.186;9.222;2024-02-21T12:56:40;7.43;;;2.23;;
75169;SDS011;63749;49.186;9.222;2024-02-21T12:59:06;6.68;;;2.33;;
75169;SDS011;63749;49.186;9.222;2024-02-21T13:01:35;8.77;;;2.42;;
75169;SDS011;63749;49.186;9.222;2024-02-21T13:04:01;7.97;;;2.60;;
75169;SDS011;63749;49.186;9.222;2024-02-21T13:06:27;7.20;;;2.08;;
75169;SDS011;63749;49.186;9.222;2024-02-21T13:08:53;8.47;;;2.50;;
75169;SDS011;63749;49.186;9.222;2024-02-21T13:11:18;6.20;;;2.00;;
75169;SDS011;63749;49.186;9.222;2024-02-21T13:13:44;6.13;;;2.23;;
75169;SDS011;63749;49.186;9.222;2024-02-21T13:16:09;9.13;;;2.60;;
75169;SDS011;63749;49.186;9.222;2024-02-21T13:18:35;7.22;;;2.47;;
75169;SDS011;63749;49.186;9.222;2024-02-21T13:21:03;7.28;;;2.47;;
75169;SDS011;63749;49.186;9.222;2024-02-21T13:23:29;7.47;;;2.55;;
75169;SDS011;63749;49.186;9.222;2024-02-21T13:25:54;7.87;;;2.30;;
75169;SDS011;63749;49.186;9.222;2024-02-21T13:28:20;7.40;;;2.10;;
75169;SDS011;63749;49.186;9.222;2024-02-21T13:30:45;6.07;;;2.20;;
75169;SDS011;63749;49.186;9.222;2024-02-21T13:33:11;7.13;;;1.98;;
75169;SDS011;63749;49.186;9.222;2024-02-21T13:35:37;6.23;;;2.40;;
75169;SDS011;63749;49.186;9.222;2024-02-21T13:38:03;5.80;;;2.20;;
75169;SDS011;63749;49.186;9.222;2024-02-21T13:40:28;6.13;;;2.30;;
75169;SDS011;63749;49.186;9.222;2024-02-21T13:42:54;7.80;;;2.20;;
75169;SDS011;63749;49.186;9.222;2024-02-21T13:45:19;9.23;;;2.20;;
75169;SDS011;63749;49.186;9.222;2024-02-21T13:47:45;6.80;;;2.23;;
75169;SDS011;63749;49.186;9.222;2024-02-21T13:50:10;7.63;;;2.00;;
75169;SDS011;63749;49.186;9.222;2024-02-21T13:52:42;6.20;;;1.92;;
75169;SDS011;63749;49.186;9.222;2024-02-21T13:55:08;6.50;;;1.98;;
75169;SDS011;63749;49.186;9.222;2024-02-21T13:57:37;4.97;;;2.10;;
75169;SDS011;63749;49.186;9.222;2024-02-21T14:00:03;7.97;;;2.35;;
75169;SDS011;63749;49.186;9.222;2024-02-21T14:02:29;6.63;;;2.20;;
75169;SDS011;63749;49.186;9.222;2024-02-21T14:04:55;6.60;;;2.05;;
75169;SDS011;63749;49.186;9.222;2024-02-21T14:07:21;5.27;;;1.90;;
75169;SDS011;63749;49.186;9.222;2024-02-21T14:09:46;7.63;;;2.03;;
75169;SDS011;63749;49.186;9.222;2024-02-21T14:12:12;6.20;;;2.00;;
75169;SDS011;63749;49.186;9.222;2024-02-21T14:14:37;7.70;;;2.00;;
75169;SDS011;63749;49.186;9.222;2024-02-21T14:17:03;6.33;;;2.00;;
75169;SDS011;63749;49.186;9.222;2024-02-21T14:19:29;6.65;;;1.80;;
75169;SDS011;63749;49.186;9.222;2024-02-21T14:21:54;5.80;;;1.77;;
75169;SDS011;63749;49.186;9.222;2024-02-21T14:24:20;6.90;;;2.10;;
75169;SDS011;63749;49.186;9.222;2024-02-21T14:26:45;7.15;;;2.20;;
75169;SDS011;63749;49.186;9.222;2024-02-21T14:29:10;6.83;;;2.00;;
75169;SDS011;63749;49.186;9.222;2024-02-21T14:31:37;6.43;;;2.17;;
75169;SDS011;63749;49.186;9.222;2024-02-21T14:34:03;6.17;;;2.13;;
75169;SDS011;63749;49.186;9.222;2024-02-21T14:36:28;10.33;;;2.40;;
75169;SDS011;63749;49.186;9.222;2024-02-21T14:38:53;6.90;;;2.00;;